Staraja Russa, Russia
Current Conditions -  °F | °C
As of 9:30 AM on Saturday 29 Nov 2014 (Local Time) from ULOO Reporting Station
Haze Haze  
Wind Chill:   Ceiling: 800
Heat Index: 16°   Visibility: 3mi
Dew Point: 12°   Wind: 4mph
Humidity: 86%   Direction: NA
Pressure: 30.59"   Gusts: NA
Location:  57.99°N, 31.36°E
Report Text: ULOO 290630Z VRB02MPS 5000 BR OVC008 M09/M11 Q1036 19920045NOSIG RMK QFE772
Loading
Personal Weather Stations






























Interactive Weather Map New forecast layout! Learn more

10-Day Weather Forecast

Advertisements
Track Severe Weather on mobile